Time;durP1;ratioP1;P1;durP2;ratioP2;P2;SDS_P1;SDS_P2;PMS_P1;PMS_P2;Temp;Humidity;BMP_temperature;BMP_pressure;BME280_temperature;BME280_humidity;BME280_pressure;Samples;Min_cycle;Max_cycle;Signal;HPM_P1;HPM_P2
2023/05/19 00:01:12;;;;;;;;;13.50;12.00;;;;;16.89;37.94;101872.06;5018675;28;45746;-66
2023/05/19 00:03:47;;;;;;;;;13.25;12.00;;;;;16.85;37.77;101858.88;5020002;28;45403;-66
2023/05/19 00:06:13;;;;;;;;;15.00;12.25;;;;;16.81;38.05;101857.22;5018674;28;45542;-66
2023/05/19 00:08:38;;;;;;;;;12.75;12.75;;;;;16.76;37.77;101857.31;5019876;28;46151;-67
2023/05/19 00:11:05;;;;;;;;;14.00;13.50;;;;;16.73;38.06;101852.09;5006975;28;45289;-65
2023/05/19 00:13:30;;;;;;;;;15.00;14.50;;;;;16.71;38.07;101860.06;5019827;28;45505;-67
2023/05/19 00:15:56;;;;;;;;;13.25;13.00;;;;;16.69;37.93;101861.00;5020085;28;45305;-66
2023/05/19 00:18:22;;;;;;;;;14.50;13.75;;;;;16.66;38.09;101861.06;5019610;28;46306;-67
2023/05/19 00:20:47;;;;;;;;;17.50;16.50;;;;;16.62;37.96;101868.22;5020166;28;45240;-67
2023/05/19 00:23:12;;;;;;;;;15.75;12.00;;;;;16.61;38.46;101870.91;5019844;28;45309;-66
2023/05/19 00:25:38;;;;;;;;;17.50;16.00;;;;;16.55;38.39;101872.81;5020017;28;45247;-66
2023/05/19 00:28:03;;;;;;;;;17.75;13.75;;;;;16.54;38.01;101876.34;5019589;28;46303;-67
2023/05/19 00:30:29;;;;;;;;;14.50;14.50;;;;;16.50;38.56;101871.13;5022159;28;45444;-67
2023/05/19 00:32:55;;;;;;;;;17.50;15.25;;;;;16.46;38.24;101872.13;5026177;28;45332;-67
2023/05/19 00:35:21;;;;;;;;;11.75;10.00;;;;;16.42;38.53;101866.00;5026441;28;45286;-67
2023/05/19 00:37:47;;;;;;;;;17.00;15.00;;;;;16.39;38.47;101871.38;5026110;28;45555;-67
2023/05/19 00:40:13;;;;;;;;;17.50;14.50;;;;;16.37;38.68;101874.03;5012170;28;45955;-67
2023/05/19 00:42:39;;;;;;;;;16.25;14.75;;;;;16.35;38.32;101869.66;5012974;28;45622;-66
2023/05/19 00:45:05;;;;;;;;;20.75;18.00;;;;;16.32;38.95;101869.75;5023313;28;45396;-67
2023/05/19 00:47:32;;;;;;;;;16.50;15.00;;;;;16.29;38.56;101870.69;5022849;28;46458;-66
2023/05/19 00:49:58;;;;;;;;;18.00;17.50;;;;;16.26;38.43;101865.44;5023339;28;45782;-66
2023/05/19 00:52:23;;;;;;;;;16.75;14.75;;;;;16.27;38.95;101876.94;5026267;28;45233;-66
2023/05/19 00:54:50;;;;;;;;;17.00;13.25;;;;;16.22;38.77;101871.72;5022947;28;45394;-66
2023/05/19 00:57:16;;;;;;;;;16.25;14.00;;;;;16.20;38.72;101865.53;5006640;28;46747;-66
2023/05/19 00:59:41;;;;;;;;;14.75;13.25;;;;;16.19;38.89;101875.28;5007293;28;45542;-65
2023/05/19 01:02:06;;;;;;;;;14.00;14.00;;;;;16.15;38.96;101870.06;5022950;28;45331;-65
2023/05/19 01:04:33;;;;;;;;;18.75;15.75;;;;;16.15;38.82;101870.06;5009991;28;45433;-66
2023/05/19 01:06:59;;;;;;;;;16.50;16.25;;;;;16.12;38.74;101871.00;5023009;28;45466;-66
2023/05/19 01:09:25;;;;;;;;;23.50;19.75;;;;;16.12;39.01;101867.50;5018652;28;45438;-66
2023/05/19 01:11:51;;;;;;;;;17.75;16.00;;;;;16.09;38.79;101871.09;5023992;28;45503;-66
2023/05/19 01:14:17;;;;;;;;;22.00;16.50;;;;;16.08;38.79;101864.03;5025052;28;45357;-66
2023/05/19 01:17:13;;;;;;;;;16.00;16.00;;;;;16.04;39.09;101860.56;5024990;28;46712;-66
2023/05/19 01:19:48;;;;;;;;;18.75;16.50;;;;;16.03;39.34;101860.59;5023519;28;45385;-66
2023/05/19 01:22:35;;;;;;;;;17.75;15.75;;;;;16.01;39.13;101860.63;5025689;28;45499;-66
2023/05/19 01:25:30;;;;;;;;;17.00;15.50;;;;;16.00;39.52;101857.97;5025556;28;45339;-66
2023/05/19 01:28:17;;;;;;;;;20.25;16.75;;;;;15.96;38.98;101862.50;5025572;28;45265;-66
2023/05/19 01:30:44;;;;;;;;;16.50;14.25;;;;;15.93;39.47;101860.75;5024253;28;45395;-66
2023/05/19 01:33:13;;;;;;;;;19.75;15.50;;;;;15.92;39.41;101859.03;5025382;28;45558;-67
2023/05/19 01:35:40;;;;;;;;;18.75;12.75;;;;;15.86;39.55;101851.19;5024403;28;45478;-66
2023/05/19 01:38:08;;;;;;;;;14.00;14.00;;;;;15.87;39.68;101850.28;5025478;28;45264;-66
2023/05/19 01:40:33;;;;;;;;;16.50;13.75;;;;;15.85;39.46;101849.44;5024298;28;45431;-65
2023/05/19 01:43:00;;;;;;;;;16.00;14.00;;;;;15.83;39.89;101835.31;5036925;28;45434;-66
2023/05/19 01:45:31;;;;;;;;;17.00;17.00;;;;;15.79;39.86;101838.03;5022403;28;45524;-65
2023/05/19 01:48:00;;;;;;;;;19.25;16.75;;;;;15.76;39.53;101837.19;5021999;28;46272;-65
2023/05/19 01:50:26;;;;;;;;;20.75;16.25;;;;;15.73;39.61;101839.88;5022246;28;45420;-65
2023/05/19 01:52:52;;;;;;;;;19.75;16.25;;;;;15.69;39.94;101854.09;5020624;28;45360;-66
2023/05/19 01:55:18;;;;;;;;;21.75;18.75;;;;;15.68;39.98;101840.88;5022169;28;45186;-67
2023/05/19 01:57:56;;;;;;;;;22.75;15.75;;;;;15.67;39.94;101849.72;5021897;28;45362;-65
2023/05/19 02:00:35;;;;;;;;;16.75;15.50;;;;;15.64;39.91;101855.09;5022532;28;45387;-66
2023/05/19 02:03:06;;;;;;;;;18.75;14.25;;;;;15.61;39.85;101840.13;5007331;28;45491;-66
2023/05/19 02:06:08;;;;;;;;;17.00;13.25;;;;;15.58;40.16;101835.75;5016511;28;45567;-66
2023/05/19 02:08:43;;;;;;;;;21.75;17.50;;;;;15.56;40.30;101842.84;5010214;28;45583;-66
2023/05/19 02:11:28;;;;;;;;;19.00;18.25;;;;;15.53;40.53;101844.69;5018788;28;45454;-66
2023/05/19 02:13:55;;;;;;;;;16.50;16.25;;;;;15.51;39.94;101849.13;5014183;28;45384;-66
2023/05/19 02:16:27;;;;;;;;;22.75;19.25;;;;;15.50;39.91;101848.25;5017495;28;45348;-66
2023/05/19 02:18:53;;;;;;;;;17.75;16.50;;;;;15.47;40.21;101843.03;5013687;28;46146;-66
2023/05/19 02:21:18;;;;;;;;;18.00;17.00;;;;;15.43;40.66;101842.19;5020836;28;45336;-66
2023/05/19 02:23:44;;;;;;;;;16.00;14.75;;;;;15.42;40.35;101847.50;5021024;28;45272;-66
2023/05/19 02:26:09;;;;;;;;;18.00;15.75;;;;;15.41;40.43;101851.06;5020126;28;45484;-66
2023/05/19 02:28:35;;;;;;;;;17.25;17.00;;;;;15.39;40.44;101842.25;5021426;28;47101;-66
2023/05/19 02:31:01;;;;;;;;;22.25;19.50;;;;;15.37;40.66;101844.94;5021480;28;45174;-66
2023/05/19 02:33:29;;;;;;;;;18.00;15.00;;;;;15.31;40.26;101839.75;5021394;28;45669;-66
2023/05/19 02:35:55;;;;;;;;;23.25;18.00;;;;;15.32;40.38;101837.97;5021511;28;45390;-66
2023/05/19 02:38:20;;;;;;;;;20.00;18.00;;;;;15.34;40.29;101838.81;5021173;28;45814;-66
2023/05/19 02:40:45;;;;;;;;;18.75;17.75;;;;;15.31;40.49;101842.41;5020141;28;45389;-65
2023/05/19 02:43:11;;;;;;;;;20.75;18.00;;;;;15.31;40.35;101841.50;5021364;28;45270;-66
2023/05/19 02:45:36;;;;;;;;;23.50;18.75;;;;;15.29;40.79;101836.25;5021491;28;45330;-66
2023/05/19 02:48:01;;;;;;;;;26.25;19.25;;;;;15.26;40.75;101833.66;5020650;28;50592;-66
2023/05/19 02:50:26;;;;;;;;;18.75;17.50;;;;;15.26;40.94;101837.16;5021254;28;45284;-66
2023/05/19 02:52:52;;;;;;;;;22.25;19.00;;;;;15.22;40.77;101832.81;5030426;28;45511;-66
2023/05/19 02:55:18;;;;;;;;;19.50;17.00;;;;;15.18;40.71;101831.13;5019271;28;45535;-66
2023/05/19 02:57:43;;;;;;;;;22.00;20.75;;;;;15.20;41.01;101842.56;5020962;28;46171;-66
2023/05/19 03:00:09;;;;;;;;;19.75;18.50;;;;;15.17;40.74;101833.78;5028408;28;45422;-66
2023/05/19 03:02:34;;;;;;;;;23.75;20.50;;;;;15.14;40.95;101832.06;5023824;28;45217;-66
2023/05/19 03:05:02;;;;;;;;;24.00;21.25;;;;;15.12;41.14;101833.88;5018618;28;48408;-66
2023/05/19 03:07:27;;;;;;;;;19.75;18.25;;;;;15.10;40.82;101831.22;5020177;28;45383;-66
2023/05/19 03:09:52;;;;;;;;;18.25;17.50;;;;;15.09;40.86;101833.91;5019935;28;45430;-66
2023/05/19 03:12:18;;;;;;;;;25.75;21.00;;;;;15.06;41.32;101826.03;5019027;28;45362;-66
2023/05/19 03:14:43;;;;;;;;;21.50;17.25;;;;;15.03;40.94;101836.66;5020837;28;45167;-66
2023/05/19 03:17:09;;;;;;;;;23.50;19.75;;;;;15.01;41.37;101833.16;5020405;28;46276;-66
2023/05/19 03:19:34;;;;;;;;;24.50;20.50;;;;;15.00;41.14;101836.72;5020601;28;45250;-66
2023/05/19 03:22:00;;;;;;;;;25.00;19.75;;;;;14.95;41.51;101831.47;5020768;28;45490;-66
2023/05/19 03:24:25;;;;;;;;;26.00;21.25;;;;;14.94;41.48;101835.00;5020394;28;45463;-66
2023/05/19 03:26:51;;;;;;;;;25.00;21.00;;;;;14.93;41.05;101839.44;5020212;28;45301;-66
2023/05/19 03:29:16;;;;;;;;;25.00;22.00;;;;;14.91;41.20;101837.72;5020578;28;45361;-66
2023/05/19 03:31:41;;;;;;;;;21.00;17.50;;;;;14.88;41.61;101833.34;5020284;28;45398;-66
2023/05/19 03:34:07;;;;;;;;;23.50;19.25;;;;;14.88;41.30;101837.75;5020639;28;45361;-66
2023/05/19 03:36:38;;;;;;;;;24.75;19.25;;;;;14.84;41.45;101836.94;5020269;28;46115;-65
2023/05/19 03:39:08;;;;;;;;;23.75;21.25;;;;;14.78;41.36;101832.59;5020619;28;45273;-66
2023/05/19 03:41:33;;;;;;;;;20.25;18.25;;;;;14.76;41.91;101833.53;5020287;28;45324;-66
2023/05/19 03:43:58;;;;;;;;;25.00;23.25;;;;;14.72;41.49;101831.84;5020384;28;45231;-66
2023/05/19 03:46:24;;;;;;;;;24.25;20.50;;;;;14.70;41.70;101833.63;5020156;28;45894;-66
2023/05/19 03:48:50;;;;;;;;;22.00;19.50;;;;;14.70;41.44;101839.75;5020338;28;45250;-66
2023/05/19 03:51:15;;;;;;;;;24.75;21.00;;;;;14.61;41.67;101832.78;5020311;28;45498;-66
2023/05/19 03:53:40;;;;;;;;;26.50;22.25;;;;;14.65;41.38;101846.03;5030141;28;45149;-65
2023/05/19 03:56:06;;;;;;;;;16.50;15.00;;;;;14.61;41.50;101839.88;5019639;28;58904;-66
2023/05/19 03:58:32;;;;;;;;;26.50;23.50;;;;;14.61;41.97;101845.16;5020769;28;46335;-66
2023/05/19 04:00:57;;;;;;;;;22.50;20.25;;;;;14.58;41.78;101850.50;5020297;28;45420;-66
2023/05/19 04:03:24;;;;;;;;;20.75;19.75;;;;;14.57;42.10;101844.31;5019722;28;51358;-66
2023/05/19 04:05:50;;;;;;;;;23.00;22.00;;;;;14.55;41.89;101850.53;5019649;28;46410;-66
2023/05/19 04:08:15;;;;;;;;;25.25;20.00;;;;;14.52;41.60;101840.00;5020014;28;45335;-66
2023/05/19 04:10:41;;;;;;;;;26.75;21.00;;;;;14.48;41.62;101836.53;5014661;28;47711;-66
2023/05/19 04:13:06;;;;;;;;;27.25;21.00;;;;;14.47;42.00;101842.69;5009200;28;48046;-66
2023/05/19 04:15:31;;;;;;;;;23.75;20.75;;;;;14.44;42.02;101840.97;5016606;28;52240;-66
2023/05/19 04:17:57;;;;;;;;;21.25;16.75;;;;;14.42;41.71;101848.03;5017023;28;46386;-67
2023/05/19 04:20:22;;;;;;;;;29.50;20.00;;;;;14.41;41.96;101843.63;5017264;28;50013;-66
2023/05/19 04:22:47;;;;;;;;;26.25;23.00;;;;;14.34;42.03;101831.41;5016753;28;49282;-66
2023/05/19 04:25:13;;;;;;;;;22.75;20.75;;;;;14.35;42.18;101846.38;5016795;28;45386;-66
2023/05/19 04:27:38;;;;;;;;;30.00;26.25;;;;;14.34;41.99;101843.75;5016722;28;45419;-66
2023/05/19 04:30:05;;;;;;;;;24.75;23.00;;;;;14.33;42.48;101850.81;5016563;28;45438;-65
2023/05/19 04:32:30;;;;;;;;;27.25;25.50;;;;;14.30;42.29;101848.19;4999957;28;45253;-65
2023/05/19 04:34:57;;;;;;;;;17.00;16.25;;;;;14.29;42.40;101849.09;5016851;28;46114;-65
2023/05/19 04:37:24;;;;;;;;;25.50;22.75;;;;;14.23;42.16;101850.03;5002059;28;45899;-65
2023/05/19 04:39:51;;;;;;;;;25.25;24.00;;;;;14.19;42.20;101845.69;5001604;28;45337;-65
2023/05/19 04:42:18;;;;;;;;;27.75;20.75;;;;;14.22;42.54;101852.72;5006899;28;45427;-65
2023/05/19 04:44:44;;;;;;;;;24.75;23.00;;;;;14.18;42.37;101851.88;5016784;28;47530;-65
2023/05/19 04:47:10;;;;;;;;;25.50;18.50;;;;;14.17;42.75;101849.25;5018248;28;45328;-65
2023/05/19 04:49:38;;;;;;;;;20.50;20.50;;;;;14.17;42.46;101852.75;5018060;28;45242;-65
2023/05/19 04:52:09;;;;;;;;;24.75;21.75;;;;;14.12;42.69;101849.28;5025185;28;45408;-66
2023/05/19 04:54:35;;;;;;;;;24.00;23.50;;;;;14.14;42.67;101860.72;5004382;28;46289;-66
2023/05/19 04:57:01;;;;;;;;;24.25;24.00;;;;;14.11;42.38;101858.09;5019537;28;45253;-66
2023/05/19 04:59:27;;;;;;;;;25.25;22.00;;;;;14.10;42.73;101864.28;5018628;28;45345;-66
2023/05/19 05:01:52;;;;;;;;;25.75;23.00;;;;;14.10;42.78;101864.28;5019541;28;45335;-66
2023/05/19 05:04:18;;;;;;;;;27.00;23.25;;;;;14.11;42.76;101866.03;5019159;28;46259;-66
2023/05/19 05:06:46;;;;;;;;;31.50;27.25;;;;;14.11;42.51;101866.03;5018110;28;45377;-65
2023/05/19 05:09:13;;;;;;;;;23.75;23.00;;;;;14.12;43.11;101873.97;5019279;28;45308;-65
2023/05/19 05:11:39;;;;;;;;;25.75;23.50;;;;;14.12;42.72;101873.06;5019099;28;45514;-65
2023/05/19 05:14:04;;;;;;;;;26.00;23.50;;;;;14.12;43.01;101871.31;5018841;28;45561;-65
2023/05/19 05:16:30;;;;;;;;;31.25;28.00;;;;;14.13;42.58;101880.13;5019410;28;45297;-66
2023/05/19 05:18:56;;;;;;;;;26.75;24.00;;;;;14.11;43.02;101882.78;5022740;28;45294;-65
2023/05/19 05:21:22;;;;;;;;;23.00;23.00;;;;;14.11;43.08;101881.88;5021310;28;45437;-65
2023/05/19 05:23:50;;;;;;;;;28.00;24.00;;;;;14.10;43.19;101886.31;5022349;28;47264;-66
2023/05/19 05:26:21;;;;;;;;;26.00;23.00;;;;;14.10;42.72;101883.66;5022441;28;45341;-65
2023/05/19 05:28:47;;;;;;;;;28.00;25.75;;;;;14.07;43.04;101881.03;5021251;28;45390;-65
2023/05/19 05:31:12;;;;;;;;;26.75;24.00;;;;;14.09;42.90;101881.06;5022521;28;45289;-65
2023/05/19 05:33:38;;;;;;;;;26.75;22.00;;;;;14.06;43.24;101883.72;5020223;28;47890;-65
2023/05/19 05:36:03;;;;;;;;;28.50;24.50;;;;;14.03;43.20;101881.97;5022490;28;45434;-65
2023/05/19 05:38:29;;;;;;;;;28.50;25.00;;;;;14.04;43.28;101880.22;5021077;28;45319;-66
2023/05/19 05:40:54;;;;;;;;;39.25;32.75;;;;;13.97;43.12;101874.09;5022229;28;45453;-66
2023/05/19 05:43:20;;;;;;;;;28.50;28.00;;;;;14.03;43.18;101891.69;5021742;28;45340;-63
2023/05/19 05:45:45;;;;;;;;;28.25;23.25;;;;;14.03;43.35;101894.34;5021578;28;47854;-64
2023/05/19 05:48:11;;;;;;;;;28.25;26.00;;;;;14.01;43.41;101886.41;5020082;28;45761;-65
2023/05/19 05:50:37;;;;;;;;;31.50;26.00;;;;;14.02;43.37;101892.56;5022139;28;45392;-63
2023/05/19 05:53:05;;;;;;;;;32.00;24.25;;;;;13.94;43.55;101875.03;5031882;28;45278;-64
2023/05/19 05:55:30;;;;;;;;;31.75;25.75;;;;;14.05;43.24;101885.50;5021822;28;45372;-63
2023/05/19 05:57:57;;;;;;;;;25.25;23.25;;;;;14.06;43.49;101881.06;5021964;28;45301;-64
2023/05/19 06:00:22;;;;;;;;;30.50;24.25;;;;;14.06;43.65;101883.72;5026994;28;45488;-64
2023/05/19 06:02:50;;;;;;;;;31.75;24.25;;;;;14.08;43.16;101881.94;5021555;28;45308;-64
2023/05/19 06:05:15;;;;;;;;;27.00;26.50;;;;;14.08;43.62;101884.59;5021970;28;45367;-65
2023/05/19 06:07:41;;;;;;;;;32.25;29.25;;;;;14.07;43.23;101891.63;5021539;28;45364;-64
2023/05/19 06:10:08;;;;;;;;;24.75;22.50;;;;;14.07;43.77;101885.47;5037004;28;45580;-65
2023/05/19 06:12:34;;;;;;;;;27.50;24.25;;;;;14.09;43.73;101895.13;5020254;28;46249;-65
2023/05/19 06:15:01;;;;;;;;;27.50;25.25;;;;;14.09;43.50;101894.28;5020051;28;45261;-65
2023/05/19 06:17:26;;;;;;;;;33.00;25.25;;;;;14.13;43.57;101901.25;5021492;28;45400;-66
2023/05/19 06:19:52;;;;;;;;;25.00;22.75;;;;;14.15;43.55;101896.84;5021389;28;45574;-66
2023/05/19 06:22:17;;;;;;;;;25.75;24.25;;;;;14.14;43.83;101892.44;5020023;28;48494;-64
2023/05/19 06:24:42;;;;;;;;;23.50;21.25;;;;;14.20;43.54;101895.03;5021378;28;45956;-70
2023/05/19 06:27:08;;;;;;;;;30.50;27.75;;;;;14.17;43.36;101887.13;5021378;28;45404;-70
2023/05/19 06:29:33;;;;;;;;;28.00;23.25;;;;;14.23;44.00;101902.91;5019954;28;45368;-70
2023/05/19 06:31:58;;;;;;;;;26.50;23.00;;;;;14.23;43.54;101897.63;5019817;28;47199;-71
2023/05/19 06:34:24;;;;;;;;;27.00;24.00;;;;;14.26;43.59;101908.19;5021614;28;45257;-72
2023/05/19 06:36:50;;;;;;;;;29.75;24.75;;;;;14.28;43.62;101902.88;5021462;28;45261;-70
2023/05/19 06:39:15;;;;;;;;;25.00;21.75;;;;;14.25;43.98;101903.78;5021312;28;45507;-71
2023/05/19 06:41:40;;;;;;;;;26.50;24.75;;;;;14.30;43.99;101901.97;5020965;28;45427;-70
2023/05/19 06:44:07;;;;;;;;;24.00;23.50;;;;;14.30;43.84;101894.03;5021130;28;45434;-71
2023/05/19 06:46:33;;;;;;;;;30.25;25.25;;;;;14.38;43.95;101901.00;5020292;28;45271;-70
2023/05/19 06:48:58;;;;;;;;;27.00;25.75;;;;;14.39;43.92;101900.97;5021274;28;45530;-70
2023/05/19 06:51:24;;;;;;;;;27.75;21.25;;;;;14.38;43.69;101893.94;5022340;28;45479;-70
2023/05/19 06:53:49;;;;;;;;;27.00;23.00;;;;;14.43;43.58;101902.69;5029849;28;45206;-70
2023/05/19 06:56:15;;;;;;;;;24.25;21.75;;;;;14.36;44.12;101881.63;5021055;28;45217;-70
2023/05/19 06:58:40;;;;;;;;;26.50;24.50;;;;;14.44;43.93;101893.88;5023023;28;45255;-71
2023/05/19 07:01:06;;;;;;;;;24.00;23.25;;;;;14.47;43.69;101890.31;5022678;28;46104;-70
2023/05/19 07:03:31;;;;;;;;;28.25;24.50;;;;;14.52;43.85;101890.25;5020943;28;45147;-71
2023/05/19 07:05:56;;;;;;;;;25.75;24.00;;;;;14.54;43.74;101886.69;5021062;28;45284;-71
2023/05/19 07:08:22;;;;;;;;;25.25;24.25;;;;;14.57;43.94;101885.78;5021082;28;45470;-70
2023/05/19 07:10:47;;;;;;;;;29.50;25.50;;;;;14.62;43.61;101891.88;5020485;28;46116;-70
2023/05/19 07:13:12;;;;;;;;;25.00;23.25;;;;;14.66;43.60;101890.13;5020733;28;45324;-70
2023/05/19 07:15:38;;;;;;;;;24.25;22.50;;;;;14.65;44.05;101888.34;5020517;28;52947;-71
2023/05/19 07:18:03;;;;;;;;;26.75;24.50;;;;;14.72;43.83;101890.03;5020643;28;45634;-70
2023/05/19 07:20:28;;;;;;;;;25.25;22.00;;;;;14.75;44.20;101882.03;5019053;28;46454;-70
2023/05/19 07:22:54;;;;;;;;;28.25;24.75;;;;;14.77;44.00;101890.84;5020563;28;46901;-70
2023/05/19 07:25:19;;;;;;;;;27.25;25.50;;;;;14.83;43.95;101885.47;5020520;28;45484;-70
2023/05/19 07:27:44;;;;;;;;;23.75;20.50;;;;;14.85;43.86;101885.44;5020688;28;45561;-70
2023/05/19 07:30:10;;;;;;;;;30.75;23.25;;;;;14.87;44.25;101886.31;5020583;28;45275;-71
2023/05/19 07:32:36;;;;;;;;;22.25;21.25;;;;;14.92;43.88;101887.13;5020305;28;45299;-71
2023/05/19 07:35:01;;;;;;;;;32.75;25.25;;;;;14.97;44.04;101884.38;5020368;28;45819;-71
2023/05/19 07:37:27;;;;;;;;;23.00;20.25;;;;;15.00;43.99;101877.28;5019213;28;45242;-71
2023/05/19 07:39:52;;;;;;;;;32.25;26.00;;;;;15.03;44.26;101876.34;5019237;28;45167;-70
2023/05/19 07:42:17;;;;;;;;;22.50;19.25;;;;;15.05;44.20;101870.13;5020634;28;45279;-71
2023/05/19 07:44:43;;;;;;;;;26.25;22.50;;;;;15.11;44.17;101879.78;5018616;28;46360;-71
2023/05/19 07:47:08;;;;;;;;;25.00;23.00;;;;;15.13;44.16;101877.97;5018819;28;45428;-71
2023/05/19 07:49:34;;;;;;;;;24.75;20.00;;;;;15.20;44.22;101873.47;5020045;28;45551;-70
2023/05/19 07:51:59;;;;;;;;;20.75;19.00;;;;;15.24;43.92;101876.06;5018759;28;45336;-71
2023/05/19 07:54:25;;;;;;;;;20.25;16.00;;;;;15.24;44.33;101868.09;5020187;28;45250;-71
2023/05/19 07:56:50;;;;;;;;;26.00;22.00;;;;;15.32;44.01;101878.56;5020243;28;45437;-70
2023/05/19 07:59:15;;;;;;;;;24.00;21.00;;;;;15.38;44.16;101869.63;5024638;28;46377;-72
2023/05/19 08:01:41;;;;;;;;;29.00;24.00;;;;;15.42;44.06;101877.53;5020080;28;45252;-71
2023/05/19 08:04:06;;;;;;;;;25.25;19.50;;;;;15.47;43.93;101881.88;5020119;28;45721;-70
2023/05/19 08:06:32;;;;;;;;;22.00;20.75;;;;;15.50;44.30;101873.88;5018812;28;45332;-71
2023/05/19 08:08:57;;;;;;;;;27.25;21.75;;;;;15.55;44.17;101867.59;5019799;28;46632;-70
2023/05/19 08:11:23;;;;;;;;;16.75;14.75;;;;;15.61;44.03;101869.28;5019926;28;45308;-68
2023/05/19 08:13:48;;;;;;;;;22.00;19.50;;;;;15.65;44.47;101864.81;5019586;28;45807;-68
2023/05/19 08:16:16;;;;;;;;;21.50;19.00;;;;;15.69;44.34;101858.53;5019964;28;45462;-68
2023/05/19 08:18:42;;;;;;;;;20.00;17.75;;;;;15.75;44.23;101853.13;5019669;28;45340;-68
2023/05/19 08:21:07;;;;;;;;;22.25;17.50;;;;;15.81;44.22;101850.38;5020038;28;45178;-68
2023/05/19 08:23:33;;;;;;;;;24.25;18.75;;;;;15.83;44.07;101851.22;5018351;28;46364;-68
2023/05/19 08:25:58;;;;;;;;;20.75;19.75;;;;;15.91;43.93;101849.31;5019970;28;45340;-67
2023/05/19 08:28:24;;;;;;;;;25.50;20.25;;;;;15.93;44.00;101843.97;5019562;28;45356;-67
2023/05/19 08:30:51;;;;;;;;;27.25;21.25;;;;;16.01;44.19;101843.81;5019705;28;45385;-62
2023/05/19 08:33:16;;;;;;;;;17.50;16.75;;;;;16.04;44.22;101841.13;5019523;28;45451;-67
2023/05/19 08:35:42;;;;;;;;;23.00;18.50;;;;;16.11;44.44;101840.09;5019689;28;45340;-66
2023/05/19 08:38:07;;;;;;;;;26.50;21.25;;;;;16.15;44.34;101839.16;5018110;28;46839;-65
2023/05/19 08:40:36;;;;;;;;;21.75;18.50;;;;;16.20;44.36;101839.03;5019650;28;45262;-66
2023/05/19 08:43:02;;;;;;;;;17.75;15.75;;;;;16.23;44.30;101842.50;5019552;28;45316;-66
2023/05/19 08:45:28;;;;;;;;;22.00;20.25;;;;;16.29;44.16;101835.31;5019604;28;45328;-66
2023/05/19 08:47:55;;;;;;;;;28.25;24.50;;;;;16.36;44.07;101835.19;5017994;28;46489;-67
2023/05/19 08:50:27;;;;;;;;;20.25;16.25;;;;;16.43;44.06;101838.56;5018545;28;45274;-66
2023/05/19 08:53:12;;;;;;;;;22.00;19.50;;;;;16.49;44.40;101837.53;5033276;28;45222;-66
2023/05/19 08:56:13;;;;;;;;;19.25;17.00;;;;;16.55;44.35;101826.81;5022949;28;45238;-67
2023/05/19 08:58:40;;;;;;;;;15.75;12.50;;;;;16.62;44.13;101830.22;5012738;28;46480;-66
2023/05/19 09:01:06;;;;;;;;;20.75;19.50;;;;;16.67;44.14;101825.69;5024116;28;45847;-67
2023/05/19 09:03:37;;;;;;;;;20.50;19.00;;;;;16.68;44.00;101819.47;5021839;28;45412;-66
2023/05/19 09:06:11;;;;;;;;;19.25;16.50;;;;;16.79;44.05;101827.16;5022688;28;45427;-66
2023/05/19 09:08:37;;;;;;;;;20.50;16.00;;;;;16.84;44.08;101823.50;5022804;28;46227;-66
2023/05/19 09:11:02;;;;;;;;;20.75;18.75;;;;;16.92;44.27;101823.34;5021205;28;45446;-66
2023/05/19 09:13:28;;;;;;;;;14.50;13.00;;;;;16.95;43.99;101801.16;5022912;28;45348;-66
2023/05/19 09:15:56;;;;;;;;;17.25;15.00;;;;;17.06;44.32;101815.06;5022864;28;45317;-66
2023/05/19 09:18:23;;;;;;;;;18.50;15.00;;;;;17.12;44.07;101811.38;5022374;28;45325;-66
2023/05/19 09:20:49;;;;;;;;;19.75;18.25;;;;;17.19;44.32;101803.22;5022755;28;45369;-67
2023/05/19 09:23:17;;;;;;;;;18.75;16.00;;;;;17.27;44.03;101808.34;5022514;28;45238;-67
2023/05/19 09:25:52;;;;;;;;;15.75;14.00;;;;;17.35;44.05;101805.50;5022544;28;45528;-62
2023/05/19 09:28:34;;;;;;;;;15.25;11.50;;;;;17.42;44.14;101799.13;5021406;28;45420;-66
2023/05/19 09:31:05;;;;;;;;;15.25;14.00;;;;;17.49;44.10;101800.69;5021197;28;45286;-75
2023/05/19 09:33:33;;;;;;;;;18.00;14.00;;;;;17.58;43.99;101796.03;5022607;28;45558;-68
2023/05/19 09:35:59;;;;;;;;;14.00;14.00;;;;;17.60;44.15;101797.75;5022660;28;45179;-68
2023/05/19 09:38:26;;;;;;;;;14.50;13.50;;;;;17.71;43.94;101800.97;5022151;28;45936;-69
2023/05/19 09:40:56;;;;;;;;;14.50;13.75;;;;;17.78;43.97;101793.69;5022539;28;45407;-77
2023/05/19 09:43:22;;;;;;;;;14.00;13.00;;;;;17.82;43.93;101783.84;5009266;28;45287;-78
2023/05/19 09:46:10;;;;;;;;;13.75;11.50;;;;;17.95;44.06;101789.72;5020844;28;45639;-69
2023/05/19 09:48:36;;;;;;;;;20.75;16.50;;;;;18.05;43.89;101791.22;5021023;28;45709;-69
2023/05/19 09:51:06;;;;;;;;;16.75;14.25;;;;;18.15;43.95;101791.81;5021858;28;45246;-69
2023/05/19 09:53:33;;;;;;;;;17.00;13.75;;;;;18.16;43.89;101767.84;5024562;28;45292;-69
2023/05/19 09:56:00;;;;;;;;;12.00;11.00;;;;;18.32;43.84;101786.00;5021953;28;45354;-68
2023/05/19 09:58:30;;;;;;;;;17.00;12.50;;;;;18.48;43.56;101791.75;5024230;28;46105;-73
2023/05/19 10:00:58;;;;;;;;;15.00;12.75;;;;;18.61;43.87;101784.22;5024361;28;45515;-73
2023/05/19 10:03:24;;;;;;;;;20.00;14.75;;;;;18.76;43.62;101782.88;5021740;28;45349;-70
2023/05/19 10:05:52;;;;;;;;;14.50;13.25;;;;;18.91;43.78;101779.75;5004482;28;45206;-70
2023/05/19 10:08:18;;;;;;;;;15.00;11.50;;;;;19.07;43.69;101779.22;5022566;28;46040;-72
2023/05/19 10:10:47;;;;;;;;;13.25;11.00;;;;;19.25;43.59;101775.09;5022935;28;45490;-73
2023/05/19 10:13:12;;;;;;;;;14.00;13.00;;;;;19.40;43.84;101747.91;5020873;28;45532;-75
2023/05/19 10:15:41;;;;;;;;;15.00;13.50;;;;;19.79;44.24;101775.84;5022367;28;45516;-67
2023/05/19 10:18:08;;;;;;;;;11.75;11.75;;;;;20.14;44.03;101779.03;5020417;28;48235;-72
2023/05/19 10:20:35;;;;;;;;;10.25;9.00;;;;;20.49;44.67;101770.56;5020234;28;45316;-76
2023/05/19 10:23:01;;;;;;;;;11.75;11.50;;;;;20.92;44.18;101768.88;5021732;28;45328;-71
2023/05/19 10:25:29;;;;;;;;;9.25;8.75;;;;;21.42;44.58;101763.19;5008600;28;46684;-73
2023/05/19 10:28:00;;;;;;;;;12.25;10.25;;;;;21.92;44.95;101761.00;4998754;28;46363;-68
2023/05/19 10:30:33;;;;;;;;;10.00;10.00;;;;;22.51;44.89;101769.00;4997600;28;46520;-72
2023/05/19 10:33:01;;;;;;;;;9.25;9.25;;;;;23.07;44.97;101763.56;5019950;28;45415;-71
2023/05/19 10:35:38;;;;;;;;;8.50;6.25;;;;;23.72;44.77;101757.56;5018597;28;45515;-65
2023/05/19 10:38:22;;;;;;;;;7.50;7.00;;;;;24.37;44.65;101765.63;5006819;28;47636;-67
2023/05/19 10:40:51;;;;;;;;;8.00;7.50;;;;;24.97;44.20;101769.44;5021052;28;45740;-66
2023/05/19 10:43:55;;;;;;;;;8.75;8.00;;;;;25.60;44.15;101772.88;5020853;28;45297;-68
2023/05/19 10:46:25;;;;;;;;;11.50;9.00;;;;;26.22;44.45;101777.97;5019286;28;45444;-68
2023/05/19 10:48:51;;;;;;;;;13.75;11.00;;;;;26.70;44.02;101768.59;5021162;28;45435;-68
2023/05/19 10:51:16;;;;;;;;;9.00;8.75;;;;;27.12;43.49;101745.13;5019873;28;45463;-68
2023/05/19 10:53:45;;;;;;;;;9.50;8.25;;;;;27.57;43.89;101755.53;5031016;28;45367;-69
2023/05/19 10:56:27;;;;;;;;;6.50;6.50;;;;;27.99;43.61;101758.00;5020830;28;45601;-69
2023/05/19 10:58:53;;;;;;;;;7.25;7.25;;;;;28.38;43.37;101754.22;5025690;28;46170;-73
2023/05/19 11:01:23;;;;;;;;;8.50;8.50;;;;;28.70;42.85;101756.41;5014850;28;45785;-70
2023/05/19 11:03:57;;;;;;;;;8.75;8.75;;;;;29.02;42.82;101750.38;5020859;28;45634;-71
2023/05/19 11:06:31;;;;;;;;;11.25;9.75;;;;;29.32;42.31;101762.53;5019467;28;45446;-69
2023/05/19 11:09:09;;;;;;;;;9.50;7.50;;;;;29.51;42.20;101748.41;5020571;28;46459;-70
2023/05/19 11:11:55;;;;;;;;;10.00;8.75;;;;;29.82;42.20;101755.94;5020490;28;45391;-72